createdAt,value
2019-05-17T00:01:20.063Z,13.17
2019-05-17T00:06:27.855Z,13.30
2019-05-17T00:11:36.739Z,12.74
2019-05-17T00:16:43.752Z,13.89
2019-05-17T00:21:51.637Z,13.56
2019-05-17T00:26:59.583Z,14.99
2019-05-17T00:32:07.507Z,14.45
2019-05-17T00:37:17.359Z,13.83
2019-05-17T00:42:26.274Z,13.54
2019-05-17T00:47:31.657Z,13.53
2019-05-17T00:52:39.407Z,12.33
2019-05-17T00:57:47.614Z,12.38
2019-05-17T01:02:57.204Z,14.10
2019-05-17T01:08:06.917Z,15.30
2019-05-17T01:13:12.085Z,15.62
2019-05-17T01:18:21.158Z,16.13
2019-05-17T01:23:28.956Z,18.02
2019-05-17T01:28:37.008Z,18.83
2019-05-17T01:33:47.072Z,18.93
2019-05-17T01:38:52.570Z,18.68
2019-05-17T01:44:00.359Z,17.93
2019-05-17T01:49:09.570Z,18.25
2019-05-17T01:54:17.959Z,18.29
2019-05-17T01:59:26.758Z,18.16
2019-05-17T02:04:33.597Z,17.79
2019-05-17T02:09:41.893Z,18.98
2019-05-17T02:14:49.228Z,18.91
2019-05-17T02:19:57.301Z,19.62
2019-05-17T02:25:04.551Z,18.80
2019-05-17T02:30:14.043Z,20.22
2019-05-17T02:35:22.872Z,21.14
2019-05-17T02:40:28.011Z,21.50
2019-05-17T02:45:43.504Z,22.99
2019-05-17T02:50:39.526Z,23.35
2019-05-17T02:55:47.444Z,23.14
2019-05-17T03:00:56.430Z,24.31
2019-05-17T03:06:04.207Z,22.99
2019-05-17T03:11:13.699Z,22.94
2019-05-17T03:16:23.418Z,22.22
2019-05-17T03:21:27.729Z,21.87
2019-05-17T03:26:36.304Z,22.29
2019-05-17T03:31:51.131Z,23.26
2019-05-17T03:36:56.389Z,23.64
2019-05-17T03:42:02.716Z,26.84
2019-05-17T03:47:08.181Z,26.25
2019-05-17T03:52:16.219Z,27.13
2019-05-17T03:57:24.316Z,26.25
2019-05-17T04:02:36.694Z,28.65
2019-05-17T04:07:34.774Z,27.60
2019-05-17T04:12:44.117Z,28.50
2019-05-17T04:17:52.875Z,27.02
2019-05-17T04:22:58.217Z,27.20
2019-05-17T04:28:05.093Z,29.70
2019-05-17T04:33:13.239Z,28.20
2019-05-17T04:38:23.697Z,26.33
2019-05-17T04:43:28.599Z,25.05
2019-05-17T04:48:37.916Z,24.88
2019-05-17T04:53:45.835Z,23.43
2019-05-17T04:58:54.490Z,22.47
2019-05-17T05:04:03.467Z,19.23
2019-05-17T05:09:08.852Z,16.63
2019-05-17T05:14:16.828Z,13.31
2019-05-17T05:19:25.051Z,11.24
2019-05-17T05:24:33.073Z,11.10
2019-05-17T05:29:42.094Z,11.03
2019-05-17T05:34:51.973Z,10.74
2019-05-17T05:39:57.614Z,9.64
2019-05-17T05:45:05.860Z,10.70
2019-05-17T05:50:14.109Z,9.48
2019-05-17T05:55:23.412Z,10.42
2019-05-17T06:00:29.342Z,11.01
2019-05-17T06:05:37.244Z,12.08
2019-05-17T06:10:45.041Z,13.57
2019-05-17T06:15:52.981Z,13.53
2019-05-17T06:21:02.972Z,15.11
2019-05-17T06:26:08.730Z,13.94
2019-05-17T06:31:16.750Z,14.64
2019-05-17T06:36:25.539Z,15.65
2019-05-17T06:41:33.643Z,15.41
2019-05-17T06:46:42.060Z,15.97
2019-05-17T06:51:53.581Z,17.14
2019-05-17T06:56:52.541Z,19.23
2019-05-17T07:01:59.740Z,18.61
2019-05-17T07:07:06.449Z,18.82
2019-05-17T07:12:14.376Z,18.82
2019-05-17T07:17:22.570Z,19.12
2019-05-17T07:22:30.458Z,18.91
2019-05-17T07:27:41.703Z,18.14
2019-05-17T07:32:46.098Z,14.85
2019-05-17T07:37:53.926Z,13.41
2019-05-17T07:43:10.669Z,13.25
2019-05-17T07:48:09.942Z,12.29
2019-05-17T07:53:16.713Z,12.39
2019-05-17T07:58:24.834Z,11.62
2019-05-17T08:03:33.006Z,10.71
2019-05-17T08:08:41.193Z,10.22
2019-05-17T08:13:50.441Z,10.62
2019-05-17T08:18:56.384Z,10.29
2019-05-17T08:24:04.409Z,9.48
2019-05-17T08:29:12.682Z,10.04
2019-05-17T08:34:20.463Z,9.40
2019-05-17T08:39:30.228Z,9.76
2019-05-17T08:44:35.643Z,9.30
2019-05-17T08:49:44.227Z,9.77
2019-05-17T08:54:52.014Z,8.56
2019-05-17T09:00:00.987Z,8.89
2019-05-17T09:05:09.686Z,8.79
2019-05-17T09:10:20.757Z,9.07
2019-05-17T09:15:15.890Z,8.59
2019-05-17T09:20:26.165Z,8.65
2019-05-17T09:25:23.971Z,7.95
2019-05-17T09:30:33.961Z,8.14
2019-05-17T09:35:42.887Z,8.65
2019-05-17T09:40:52.902Z,8.05
2019-05-17T09:45:51.105Z,7.72
2019-05-17T09:51:00.106Z,6.83
2019-05-17T09:56:09.944Z,5.99
2019-05-17T10:01:16.241Z,6.47
2019-05-17T10:06:24.049Z,5.77
2019-05-17T10:11:32.200Z,5.69
2019-05-17T10:16:40.314Z,5.88
2019-05-17T10:21:49.023Z,6.39
2019-05-17T10:26:56.894Z,5.01
2019-05-17T10:32:04.970Z,5.40
2019-05-17T10:37:13.051Z,4.94
2019-05-17T10:42:21.106Z,5.46
2019-05-17T10:47:30.167Z,5.98
2019-05-17T10:52:36.551Z,5.83
2019-05-17T10:57:44.354Z,5.70
2019-05-17T11:02:53.694Z,5.48
2019-05-17T11:08:03.744Z,4.75
2019-05-17T11:13:02.539Z,5.39
2019-05-17T11:18:10.371Z,5.42
2019-05-17T11:23:19.354Z,4.93
2019-05-17T11:28:27.587Z,5.52
2019-05-17T11:33:35.431Z,5.44
2019-05-17T11:38:43.353Z,5.81
2019-05-17T11:43:51.385Z,5.13
2019-05-17T11:49:00.580Z,6.03
2019-05-17T11:54:08.552Z,5.69
2019-05-17T11:59:16.373Z,5.76
2019-05-17T12:04:24.456Z,5.25
2019-05-17T12:09:37.436Z,5.20
2019-05-17T12:14:39.861Z,5.09
2019-05-17T12:19:47.777Z,4.99
2019-05-17T12:24:55.865Z,5.36
2019-05-17T12:30:03.651Z,5.26
2019-05-17T12:35:11.846Z,5.51
2019-05-17T12:40:19.726Z,4.94
2019-05-17T12:45:27.669Z,5.49
2019-05-17T12:50:35.826Z,5.71
2019-05-17T12:55:43.693Z,6.34
2019-05-17T13:00:51.471Z,5.40
2019-05-17T13:05:59.536Z,6.36
2019-05-17T13:11:07.315Z,6.35
2019-05-17T13:16:18.843Z,6.14
2019-05-17T13:21:23.370Z,6.15
2019-05-17T13:26:31.114Z,6.45
2019-05-17T13:31:39.327Z,6.30
2019-05-17T13:36:47.422Z,6.76
2019-05-17T13:42:02.372Z,6.73
2019-05-17T13:47:00.152Z,7.25
2019-05-17T13:52:08.362Z,7.31
2019-05-17T13:57:16.254Z,7.30
2019-05-17T14:02:24.191Z,7.17
2019-05-17T14:07:32.319Z,7.10
2019-05-17T14:12:40.295Z,6.36
2019-05-17T14:17:48.602Z,6.41
2019-05-17T14:22:56.519Z,6.24
2019-05-17T14:28:04.386Z,6.58
2019-05-17T14:33:12.130Z,6.46
2019-05-17T14:38:20.076Z,7.89
2019-05-17T14:43:31.414Z,8.14
2019-05-17T14:48:35.475Z,8.11
2019-05-17T14:53:43.396Z,8.76
2019-05-17T14:58:51.350Z,8.61
2019-05-17T15:03:59.718Z,8.55
2019-05-17T15:09:11.309Z,9.02
2019-05-17T15:14:15.270Z,8.73
2019-05-17T15:19:23.138Z,8.67
2019-05-17T15:24:31.946Z,9.35
2019-05-17T15:29:42.142Z,8.23
2019-05-17T15:34:42.198Z,8.32
2019-05-17T15:39:40.078Z,7.93
2019-05-17T15:44:47.831Z,8.04
2019-05-17T15:49:55.658Z,8.52
2019-05-17T15:55:03.739Z,8.67
2019-05-17T16:00:11.693Z,7.96
2019-05-17T16:05:19.471Z,8.03
2019-05-17T16:10:27.359Z,7.84
2019-05-17T16:15:35.278Z,8.43
2019-05-17T16:20:43.567Z,8.75
2019-05-17T16:25:51.308Z,8.30
2019-05-17T16:31:00.164Z,8.05
2019-05-17T16:36:08.270Z,9.38
2019-05-17T16:41:16.322Z,9.27
2019-05-17T16:46:24.407Z,9.20
2019-05-17T16:51:32.530Z,8.98
2019-05-17T16:56:40.862Z,9.65
2019-05-17T17:01:48.739Z,8.98
2019-05-17T17:06:56.462Z,8.79
2019-05-17T17:12:04.528Z,9.13
2019-05-17T17:17:13.405Z,8.99
2019-05-17T17:22:20.543Z,9.08
2019-05-17T17:27:28.614Z,9.15
2019-05-17T17:32:36.792Z,9.89
2019-05-17T17:37:45.279Z,8.23
2019-05-17T17:42:53.199Z,8.69
2019-05-17T17:48:02.255Z,8.35
2019-05-17T17:53:10.291Z,8.72
2019-05-17T17:58:18.226Z,8.74
2019-05-17T18:03:26.316Z,8.61
2019-05-17T18:08:34.802Z,8.64
2019-05-17T18:13:41.578Z,8.96
2019-05-17T18:18:49.717Z,9.64
2019-05-17T18:24:01.537Z,9.95
2019-05-17T18:28:59.629Z,9.52
2019-05-17T18:34:07.415Z,9.94
2019-05-17T18:39:15.500Z,9.07
2019-05-17T18:44:27.702Z,8.81
2019-05-17T18:49:30.790Z,9.37
2019-05-17T18:54:38.745Z,9.42
2019-05-17T18:59:46.907Z,9.37
2019-05-17T19:04:54.867Z,9.18
2019-05-17T19:10:02.834Z,9.34
2019-05-17T19:15:11.057Z,9.58
2019-05-17T19:20:18.980Z,9.91
2019-05-17T19:25:27.711Z,10.16
2019-05-17T19:30:36.668Z,10.34
2019-05-17T19:35:44.479Z,9.88
2019-05-17T19:40:53.411Z,10.49
2019-05-17T19:46:01.133Z,10.55
2019-05-17T19:51:09.226Z,10.66
2019-05-17T19:56:17.102Z,11.13
2019-05-17T20:01:25.162Z,10.81
2019-05-17T20:06:33.127Z,11.41
2019-05-17T20:11:41.061Z,11.65
2019-05-17T20:16:48.713Z,11.55
2019-05-17T20:21:56.942Z,12.05
2019-05-17T20:27:04.649Z,12.15
2019-05-17T20:32:12.398Z,12.06
2019-05-17T20:37:20.063Z,11.73
2019-05-17T20:42:27.827Z,12.15
2019-05-17T20:47:35.685Z,12.04
2019-05-17T20:52:43.884Z,12.41
2019-05-17T20:57:51.664Z,13.28
2019-05-17T21:02:59.606Z,12.88
2019-05-17T21:08:07.266Z,12.69
2019-05-17T21:13:15.202Z,12.95
2019-05-17T21:18:22.914Z,13.15
2019-05-17T21:23:30.686Z,13.12
2019-05-17T21:28:38.579Z,13.00
2019-05-17T21:33:46.301Z,13.06
2019-05-17T21:38:54.069Z,12.78
2019-05-17T21:44:01.828Z,13.35
2019-05-17T21:49:09.492Z,13.52
2019-05-17T21:54:17.324Z,13.35
2019-05-17T21:59:24.950Z,15.09
2019-05-17T22:04:32.638Z,14.07
2019-05-17T22:09:40.294Z,14.35
2019-05-17T22:14:48.049Z,14.13
2019-05-17T22:19:56.029Z,14.81
2019-05-17T22:25:03.765Z,15.30
2019-05-17T22:30:11.439Z,14.86
2019-05-17T22:35:19.349Z,15.89
2019-05-17T22:40:27.192Z,15.96
2019-05-17T22:45:34.925Z,16.52
2019-05-17T22:50:42.674Z,16.78
2019-05-17T22:55:50.397Z,16.27
2019-05-17T23:00:58.061Z,16.82
2019-05-17T23:06:06.181Z,16.61
2019-05-17T23:11:13.706Z,16.39
2019-05-17T23:16:21.575Z,16.74
2019-05-17T23:21:29.592Z,16.98
2019-05-17T23:26:37.293Z,18.00
2019-05-17T23:31:44.923Z,17.97
2019-05-17T23:36:52.837Z,18.24
2019-05-17T23:42:00.519Z,18.00
2019-05-17T23:47:08.202Z,18.22
2019-05-17T23:52:15.850Z,18.80
2019-05-17T23:57:23.734Z,19.19
